sensor_id;sensor_type;location;lat;lon;timestamp;P1;durP1;ratioP1;P2;durP2;ratioP2
16101;SDS011;56411;52.964;10.540;2023-11-21T00:01:31;40.20;;;14.60;;
16101;SDS011;56411;52.964;10.540;2023-11-21T00:03:59;42.53;;;15.03;;
16101;SDS011;56411;52.964;10.540;2023-11-21T00:06:26;39.90;;;14.23;;
16101;SDS011;56411;52.964;10.540;2023-11-21T00:08:56;34.30;;;13.07;;
16101;SDS011;56411;52.964;10.540;2023-11-21T00:11:23;39.53;;;13.83;;
16101;SDS011;56411;52.964;10.540;2023-11-21T00:13:51;38.23;;;13.87;;
16101;SDS011;56411;52.964;10.540;2023-11-21T00:16:18;40.13;;;14.90;;
16101;SDS011;56411;52.964;10.540;2023-11-21T00:18:47;40.20;;;14.70;;
16101;SDS011;56411;52.964;10.540;2023-11-21T00:21:14;39.80;;;14.70;;
16101;SDS011;56411;52.964;10.540;2023-11-21T00:23:41;38.03;;;13.90;;
16101;SDS011;56411;52.964;10.540;2023-11-21T00:26:10;37.10;;;13.73;;
16101;SDS011;56411;52.964;10.540;2023-11-21T00:28:37;37.33;;;14.27;;
16101;SDS011;56411;52.964;10.540;2023-11-21T00:31:05;43.83;;;14.70;;
16101;SDS011;56411;52.964;10.540;2023-11-21T00:33:32;39.50;;;14.43;;
16101;SDS011;56411;52.964;10.540;2023-11-21T00:35:59;37.97;;;14.10;;
16101;SDS011;56411;52.964;10.540;2023-11-21T00:38:27;38.10;;;14.07;;
16101;SDS011;56411;52.964;10.540;2023-11-21T00:40:54;43.13;;;15.13;;
16101;SDS011;56411;52.964;10.540;2023-11-21T00:43:22;34.63;;;14.23;;
16101;SDS011;56411;52.964;10.540;2023-11-21T00:45:50;39.60;;;13.40;;
16101;SDS011;56411;52.964;10.540;2023-11-21T00:48:17;46.97;;;13.70;;
16101;SDS011;56411;52.964;10.540;2023-11-21T00:50:44;35.13;;;14.10;;
16101;SDS011;56411;52.964;10.540;2023-11-21T00:53:11;52.13;;;15.17;;
16101;SDS011;56411;52.964;10.540;2023-11-21T00:55:38;37.70;;;13.93;;
16101;SDS011;56411;52.964;10.540;2023-11-21T00:58:06;37.73;;;13.20;;
16101;SDS011;56411;52.964;10.540;2023-11-21T01:00:34;41.17;;;14.60;;
16101;SDS011;56411;52.964;10.540;2023-11-21T01:03:04;38.40;;;14.47;;
16101;SDS011;56411;52.964;10.540;2023-11-21T01:05:32;38.93;;;15.20;;
16101;SDS011;56411;52.964;10.540;2023-11-21T01:08:00;39.97;;;14.90;;
16101;SDS011;56411;52.964;10.540;2023-11-21T01:10:27;37.00;;;15.07;;
16101;SDS011;56411;52.964;10.540;2023-11-21T01:12:54;44.20;;;14.73;;
16101;SDS011;56411;52.964;10.540;2023-11-21T01:15:23;36.37;;;13.77;;
16101;SDS011;56411;52.964;10.540;2023-11-21T01:17:52;35.03;;;14.37;;
16101;SDS011;56411;52.964;10.540;2023-11-21T01:20:20;36.80;;;14.43;;
16101;SDS011;56411;52.964;10.540;2023-11-21T01:22:47;36.43;;;13.83;;
16101;SDS011;56411;52.964;10.540;2023-11-21T01:25:14;32.03;;;13.60;;
16101;SDS011;56411;52.964;10.540;2023-11-21T01:27:41;35.03;;;13.97;;
16101;SDS011;56411;52.964;10.540;2023-11-21T01:30:09;32.93;;;13.33;;
16101;SDS011;56411;52.964;10.540;2023-11-21T01:32:36;31.40;;;11.97;;
16101;SDS011;56411;52.964;10.540;2023-11-21T01:35:05;27.53;;;10.40;;
16101;SDS011;56411;52.964;10.540;2023-11-21T01:37:34;15.30;;;6.17;;
16101;SDS011;56411;52.964;10.540;2023-11-21T01:40:02;20.90;;;8.23;;
16101;SDS011;56411;52.964;10.540;2023-11-21T01:42:34;22.73;;;7.93;;
16101;SDS011;56411;52.964;10.540;2023-11-21T01:45:01;15.43;;;6.17;;
16101;SDS011;56411;52.964;10.540;2023-11-21T01:47:30;14.83;;;7.00;;
16101;SDS011;56411;52.964;10.540;2023-11-21T01:49:57;16.20;;;7.10;;
16101;SDS011;56411;52.964;10.540;2023-11-21T01:52:26;15.70;;;6.83;;
16101;SDS011;56411;52.964;10.540;2023-11-21T01:54:54;13.47;;;4.93;;
16101;SDS011;56411;52.964;10.540;2023-11-21T01:57:21;13.20;;;4.90;;
16101;SDS011;56411;52.964;10.540;2023-11-21T01:59:48;12.43;;;5.00;;
16101;SDS011;56411;52.964;10.540;2023-11-21T02:02:15;13.00;;;5.00;;
16101;SDS011;56411;52.964;10.540;2023-11-21T02:04:42;13.23;;;5.47;;
16101;SDS011;56411;52.964;10.540;2023-11-21T02:07:10;14.97;;;5.73;;
16101;SDS011;56411;52.964;10.540;2023-11-21T02:09:38;13.50;;;5.50;;
16101;SDS011;56411;52.964;10.540;2023-11-21T02:12:07;15.43;;;5.97;;
16101;SDS011;56411;52.964;10.540;2023-11-21T02:14:35;15.03;;;6.73;;
16101;SDS011;56411;52.964;10.540;2023-11-21T02:17:02;15.07;;;6.00;;
16101;SDS011;56411;52.964;10.540;2023-11-21T02:19:30;15.97;;;6.80;;
16101;SDS011;56411;52.964;10.540;2023-11-21T02:21:57;17.30;;;7.30;;
16101;SDS011;56411;52.964;10.540;2023-11-21T02:24:31;16.57;;;6.97;;
16101;SDS011;56411;52.964;10.540;2023-11-21T02:26:58;18.23;;;7.23;;
16101;SDS011;56411;52.964;10.540;2023-11-21T02:29:25;17.30;;;7.50;;
16101;SDS011;56411;52.964;10.540;2023-11-21T02:31:53;19.03;;;7.83;;
16101;SDS011;56411;52.964;10.540;2023-11-21T02:34:21;19.30;;;8.10;;
16101;SDS011;56411;52.964;10.540;2023-11-21T02:36:50;19.30;;;7.80;;
16101;SDS011;56411;52.964;10.540;2023-11-21T02:39:17;18.97;;;9.33;;
16101;SDS011;56411;52.964;10.540;2023-11-21T02:41:48;19.33;;;8.53;;
16101;SDS011;56411;52.964;10.540;2023-11-21T02:44:15;20.40;;;9.83;;
16101;SDS011;56411;52.964;10.540;2023-11-21T02:46:42;19.73;;;8.77;;
16101;SDS011;56411;52.964;10.540;2023-11-21T02:49:09;18.97;;;9.53;;
16101;SDS011;56411;52.964;10.540;2023-11-21T02:51:37;18.87;;;9.40;;
16101;SDS011;56411;52.964;10.540;2023-11-21T02:54:05;23.47;;;10.00;;
16101;SDS011;56411;52.964;10.540;2023-11-21T02:56:33;21.53;;;10.03;;
16101;SDS011;56411;52.964;10.540;2023-11-21T02:59:02;22.73;;;10.30;;
16101;SDS011;56411;52.964;10.540;2023-11-21T03:01:30;22.70;;;10.43;;
16101;SDS011;56411;52.964;10.540;2023-11-21T03:03:57;20.03;;;10.10;;
16101;SDS011;56411;52.964;10.540;2023-11-21T03:06:24;24.53;;;10.93;;
16101;SDS011;56411;52.964;10.540;2023-11-21T03:08:51;24.33;;;10.67;;
16101;SDS011;56411;52.964;10.540;2023-11-21T03:11:19;22.80;;;11.33;;
16101;SDS011;56411;52.964;10.540;2023-11-21T03:13:46;24.20;;;11.60;;
16101;SDS011;56411;52.964;10.540;2023-11-21T03:16:15;24.53;;;12.13;;
16101;SDS011;56411;52.964;10.540;2023-11-21T03:18:44;24.47;;;11.73;;
16101;SDS011;56411;52.964;10.540;2023-11-21T03:21:11;24.57;;;11.90;;
16101;SDS011;56411;52.964;10.540;2023-11-21T03:23:39;25.03;;;12.60;;
16101;SDS011;56411;52.964;10.540;2023-11-21T03:26:06;28.57;;;13.93;;
16101;SDS011;56411;52.964;10.540;2023-11-21T03:28:38;27.97;;;13.43;;
16101;SDS011;56411;52.964;10.540;2023-11-21T03:31:05;27.60;;;13.63;;
16101;SDS011;56411;52.964;10.540;2023-11-21T03:33:35;25.10;;;12.77;;
16101;SDS011;56411;52.964;10.540;2023-11-21T03:36:02;24.23;;;12.23;;
16101;SDS011;56411;52.964;10.540;2023-11-21T03:38:30;24.20;;;13.03;;
16101;SDS011;56411;52.964;10.540;2023-11-21T03:40:57;26.10;;;13.27;;
16101;SDS011;56411;52.964;10.540;2023-11-21T03:43:24;26.10;;;13.10;;
16101;SDS011;56411;52.964;10.540;2023-11-21T03:45:52;27.37;;;14.63;;
16101;SDS011;56411;52.964;10.540;2023-11-21T03:48:19;27.53;;;13.87;;
16101;SDS011;56411;52.964;10.540;2023-11-21T03:50:48;29.67;;;15.20;;
16101;SDS011;56411;52.964;10.540;2023-11-21T03:53:15;27.30;;;14.13;;
16101;SDS011;56411;52.964;10.540;2023-11-21T03:55:42;25.87;;;14.07;;
16101;SDS011;56411;52.964;10.540;2023-11-21T03:58:09;29.60;;;15.57;;
16101;SDS011;56411;52.964;10.540;2023-11-21T04:00:36;30.43;;;15.63;;
16101;SDS011;56411;52.964;10.540;2023-11-21T04:03:04;27.57;;;14.87;;
16101;SDS011;56411;52.964;10.540;2023-11-21T04:05:31;27.80;;;14.70;;
16101;SDS011;56411;52.964;10.540;2023-11-21T04:07:59;26.80;;;14.80;;
16101;SDS011;56411;52.964;10.540;2023-11-21T04:10:27;27.37;;;14.47;;
16101;SDS011;56411;52.964;10.540;2023-11-21T04:12:54;24.93;;;13.40;;
16101;SDS011;56411;52.964;10.540;2023-11-21T04:15:21;24.37;;;13.50;;
16101;SDS011;56411;52.964;10.540;2023-11-21T04:17:48;25.57;;;14.07;;
16101;SDS011;56411;52.964;10.540;2023-11-21T04:20:15;25.73;;;13.13;;
16101;SDS011;56411;52.964;10.540;2023-11-21T04:22:43;26.00;;;13.07;;
16101;SDS011;56411;52.964;10.540;2023-11-21T04:25:12;24.93;;;13.10;;
16101;SDS011;56411;52.964;10.540;2023-11-21T04:27:41;23.03;;;12.30;;
16101;SDS011;56411;52.964;10.540;2023-11-21T04:30:10;24.63;;;12.47;;
16101;SDS011;56411;52.964;10.540;2023-11-21T04:32:38;25.50;;;12.90;;
16101;SDS011;56411;52.964;10.540;2023-11-21T04:35:05;26.23;;;13.07;;
16101;SDS011;56411;52.964;10.540;2023-11-21T04:37:33;26.77;;;13.70;;
16101;SDS011;56411;52.964;10.540;2023-11-21T04:40:01;26.37;;;14.63;;
16101;SDS011;56411;52.964;10.540;2023-11-21T04:42:33;26.70;;;14.60;;
16101;SDS011;56411;52.964;10.540;2023-11-21T04:45:01;28.47;;;15.27;;
16101;SDS011;56411;52.964;10.540;2023-11-21T04:47:32;30.20;;;15.63;;
16101;SDS011;56411;52.964;10.540;2023-11-21T04:49:59;28.87;;;15.17;;
16101;SDS011;56411;52.964;10.540;2023-11-21T04:52:27;26.67;;;15.37;;
16101;SDS011;56411;52.964;10.540;2023-11-21T04:54:54;30.23;;;16.17;;
16101;SDS011;56411;52.964;10.540;2023-11-21T04:57:23;28.87;;;16.03;;
16101;SDS011;56411;52.964;10.540;2023-11-21T04:59:52;28.33;;;16.07;;
16101;SDS011;56411;52.964;10.540;2023-11-21T05:02:19;27.87;;;15.30;;
16101;SDS011;56411;52.964;10.540;2023-11-21T05:04:46;28.40;;;15.20;;
16101;SDS011;56411;52.964;10.540;2023-11-21T05:07:13;24.83;;;14.03;;
16101;SDS011;56411;52.964;10.540;2023-11-21T05:09:41;26.07;;;15.17;;
16101;SDS011;56411;52.964;10.540;2023-11-21T05:12:09;29.80;;;15.63;;
16101;SDS011;56411;52.964;10.540;2023-11-21T05:14:37;26.67;;;15.37;;
16101;SDS011;56411;52.964;10.540;2023-11-21T05:17:05;28.83;;;15.13;;
16101;SDS011;56411;52.964;10.540;2023-11-21T05:19:33;27.17;;;15.30;;
16101;SDS011;56411;52.964;10.540;2023-11-21T05:22:01;26.17;;;14.20;;
16101;SDS011;56411;52.964;10.540;2023-11-21T05:24:29;24.00;;;14.03;;
16101;SDS011;56411;52.964;10.540;2023-11-21T05:26:56;26.50;;;14.30;;
16101;SDS011;56411;52.964;10.540;2023-11-21T05:29:23;25.77;;;14.00;;
16101;SDS011;56411;52.964;10.540;2023-11-21T05:31:50;24.30;;;13.40;;
16101;SDS011;56411;52.964;10.540;2023-11-21T05:34:19;25.83;;;15.00;;
16101;SDS011;56411;52.964;10.540;2023-11-21T05:36:49;25.67;;;14.27;;
16101;SDS011;56411;52.964;10.540;2023-11-21T05:39:16;24.17;;;13.80;;
16101;SDS011;56411;52.964;10.540;2023-11-21T05:41:43;28.60;;;16.33;;
16101;SDS011;56411;52.964;10.540;2023-11-21T05:44:11;27.10;;;16.03;;
16101;SDS011;56411;52.964;10.540;2023-11-21T05:46:39;26.67;;;15.27;;
16101;SDS011;56411;52.964;10.540;2023-11-21T05:49:08;29.73;;;16.90;;
16101;SDS011;56411;52.964;10.540;2023-11-21T05:51:37;27.67;;;17.00;;
16101;SDS011;56411;52.964;10.540;2023-11-21T05:54:04;30.90;;;16.90;;
16101;SDS011;56411;52.964;10.540;2023-11-21T05:56:31;27.67;;;15.93;;
16101;SDS011;56411;52.964;10.540;2023-11-21T05:58:58;25.47;;;14.93;;
16101;SDS011;56411;52.964;10.540;2023-11-21T06:01:27;28.77;;;16.07;;
16101;SDS011;56411;52.964;10.540;2023-11-21T06:03:54;27.63;;;15.93;;
16101;SDS011;56411;52.964;10.540;2023-11-21T06:06:21;29.20;;;15.70;;
16101;SDS011;56411;52.964;10.540;2023-11-21T06:08:51;26.83;;;14.70;;
16101;SDS011;56411;52.964;10.540;2023-11-21T06:11:18;30.13;;;14.30;;
16101;SDS011;56411;52.964;10.540;2023-11-21T06:13:45;28.33;;;15.73;;
16101;SDS011;56411;52.964;10.540;2023-11-21T06:16:13;27.13;;;14.53;;
16101;SDS011;56411;52.964;10.540;2023-11-21T06:18:42;28.63;;;15.50;;
16101;SDS011;56411;52.964;10.540;2023-11-21T06:21:10;25.10;;;14.60;;
16101;SDS011;56411;52.964;10.540;2023-11-21T06:23:37;25.50;;;14.40;;
16101;SDS011;56411;52.964;10.540;2023-11-21T06:26:05;28.00;;;14.53;;
16101;SDS011;56411;52.964;10.540;2023-11-21T06:28:34;26.20;;;14.80;;
16101;SDS011;56411;52.964;10.540;2023-11-21T06:31:01;26.50;;;14.87;;
16101;SDS011;56411;52.964;10.540;2023-11-21T06:33:30;25.07;;;14.43;;
16101;SDS011;56411;52.964;10.540;2023-11-21T06:35:57;24.67;;;13.73;;
16101;SDS011;56411;52.964;10.540;2023-11-21T06:38:25;27.00;;;14.87;;
16101;SDS011;56411;52.964;10.540;2023-11-21T06:40:55;26.73;;;15.23;;
16101;SDS011;56411;52.964;10.540;2023-11-21T06:43:23;28.37;;;14.73;;
16101;SDS011;56411;52.964;10.540;2023-11-21T06:45:52;24.77;;;13.87;;
16101;SDS011;56411;52.964;10.540;2023-11-21T06:48:19;26.60;;;14.07;;
16101;SDS011;56411;52.964;10.540;2023-11-21T06:50:46;27.37;;;14.43;;
16101;SDS011;56411;52.964;10.540;2023-11-21T06:53:13;26.13;;;14.60;;
16101;SDS011;56411;52.964;10.540;2023-11-21T06:55:41;24.97;;;13.73;;
16101;SDS011;56411;52.964;10.540;2023-11-21T06:58:08;30.20;;;14.73;;
16101;SDS011;56411;52.964;10.540;2023-11-21T07:00:37;25.93;;;14.70;;
16101;SDS011;56411;52.964;10.540;2023-11-21T07:03:04;30.37;;;16.00;;
16101;SDS011;56411;52.964;10.540;2023-11-21T07:05:31;28.33;;;15.63;;
16101;SDS011;56411;52.964;10.540;2023-11-21T07:07:58;31.33;;;15.30;;
16101;SDS011;56411;52.964;10.540;2023-11-21T07:10:29;28.17;;;14.90;;
16101;SDS011;56411;52.964;10.540;2023-11-21T07:12:56;24.97;;;14.47;;
16101;SDS011;56411;52.964;10.540;2023-11-21T07:15:23;25.50;;;13.73;;
16101;SDS011;56411;52.964;10.540;2023-11-21T07:17:52;23.60;;;13.07;;
16101;SDS011;56411;52.964;10.540;2023-11-21T07:20:19;25.07;;;13.23;;
16101;SDS011;56411;52.964;10.540;2023-11-21T07:22:47;26.93;;;13.10;;
16101;SDS011;56411;52.964;10.540;2023-11-21T07:25:14;25.70;;;12.70;;
16101;SDS011;56411;52.964;10.540;2023-11-21T07:27:41;24.27;;;12.97;;
16101;SDS011;56411;52.964;10.540;2023-11-21T07:30:10;23.87;;;11.87;;
16101;SDS011;56411;52.964;10.540;2023-11-21T07:32:38;23.90;;;13.03;;
16101;SDS011;56411;52.964;10.540;2023-11-21T07:35:08;30.80;;;13.97;;
16101;SDS011;56411;52.964;10.540;2023-11-21T07:37:35;28.27;;;15.07;;
16101;SDS011;56411;52.964;10.540;2023-11-21T07:40:02;27.43;;;14.23;;
16101;SDS011;56411;52.964;10.540;2023-11-21T07:42:30;28.10;;;14.53;;
16101;SDS011;56411;52.964;10.540;2023-11-21T07:44:58;23.53;;;13.37;;
16101;SDS011;56411;52.964;10.540;2023-11-21T07:47:25;26.17;;;13.63;;
16101;SDS011;56411;52.964;10.540;2023-11-21T07:49:52;25.47;;;13.40;;
16101;SDS011;56411;52.964;10.540;2023-11-21T07:52:22;24.27;;;13.40;;
16101;SDS011;56411;52.964;10.540;2023-11-21T07:54:49;25.60;;;14.63;;
16101;SDS011;56411;52.964;10.540;2023-11-21T07:57:17;21.90;;;13.23;;
16101;SDS011;56411;52.964;10.540;2023-11-21T07:59:44;25.50;;;14.30;;
16101;SDS011;56411;52.964;10.540;2023-11-21T08:02:11;21.73;;;12.87;;
16101;SDS011;56411;52.964;10.540;2023-11-21T08:04:38;24.50;;;12.97;;
16101;SDS011;56411;52.964;10.540;2023-11-21T08:07:05;22.27;;;13.17;;
16101;SDS011;56411;52.964;10.540;2023-11-21T08:09:33;26.37;;;13.43;;
16101;SDS011;56411;52.964;10.540;2023-11-21T08:12:01;23.87;;;13.37;;
16101;SDS011;56411;52.964;10.540;2023-11-21T08:14:28;24.80;;;13.77;;
16101;SDS011;56411;52.964;10.540;2023-11-21T08:16:55;25.10;;;13.40;;
16101;SDS011;56411;52.964;10.540;2023-11-21T08:19:23;23.90;;;13.73;;
16101;SDS011;56411;52.964;10.540;2023-11-21T08:21:51;25.47;;;14.00;;
16101;SDS011;56411;52.964;10.540;2023-11-21T08:24:19;23.43;;;13.53;;
16101;SDS011;56411;52.964;10.540;2023-11-21T08:26:48;22.60;;;13.50;;
16101;SDS011;56411;52.964;10.540;2023-11-21T08:29:17;22.27;;;12.10;;
16101;SDS011;56411;52.964;10.540;2023-11-21T08:31:44;21.27;;;12.43;;
16101;SDS011;56411;52.964;10.540;2023-11-21T08:34:12;20.53;;;11.50;;
16101;SDS011;56411;52.964;10.540;2023-11-21T08:36:41;24.90;;;12.23;;
16101;SDS011;56411;52.964;10.540;2023-11-21T08:39:09;23.87;;;12.47;;
16101;SDS011;56411;52.964;10.540;2023-11-21T08:41:36;21.07;;;12.13;;
16101;SDS011;56411;52.964;10.540;2023-11-21T08:44:05;21.63;;;12.00;;
16101;SDS011;56411;52.964;10.540;2023-11-21T08:46:33;22.03;;;12.40;;
16101;SDS011;56411;52.964;10.540;2023-11-21T08:49:04;21.10;;;11.77;;
16101;SDS011;56411;52.964;10.540;2023-11-21T08:51:31;22.87;;;12.20;;
16101;SDS011;56411;52.964;10.540;2023-11-21T08:53:58;23.13;;;12.53;;
16101;SDS011;56411;52.964;10.540;2023-11-21T08:56:29;21.47;;;13.17;;
16101;SDS011;56411;52.964;10.540;2023-11-21T08:58:56;20.70;;;12.47;;
16101;SDS011;56411;52.964;10.540;2023-11-21T09:01:26;19.37;;;11.63;;
16101;SDS011;56411;52.964;10.540;2023-11-21T09:03:54;18.67;;;11.10;;
16101;SDS011;56411;52.964;10.540;2023-11-21T09:06:21;19.63;;;11.87;;
16101;SDS011;56411;52.964;10.540;2023-11-21T09:08:48;19.70;;;11.63;;
16101;SDS011;56411;52.964;10.540;2023-11-21T09:11:15;21.37;;;12.03;;
16101;SDS011;56411;52.964;10.540;2023-11-21T09:13:43;20.27;;;11.80;;
16101;SDS011;56411;52.964;10.540;2023-11-21T09:16:10;20.47;;;11.93;;
16101;SDS011;56411;52.964;10.540;2023-11-21T09:18:39;21.90;;;12.20;;
16101;SDS011;56411;52.964;10.540;2023-11-21T09:21:06;21.40;;;12.53;;
16101;SDS011;56411;52.964;10.540;2023-11-21T09:23:33;20.83;;;12.63;;
16101;SDS011;56411;52.964;10.540;2023-11-21T09:26:01;21.00;;;12.00;;
16101;SDS011;56411;52.964;10.540;2023-11-21T09:28:28;19.77;;;11.50;;
16101;SDS011;56411;52.964;10.540;2023-11-21T09:30:55;18.70;;;11.10;;
16101;SDS011;56411;52.964;10.540;2023-11-21T09:33:22;20.37;;;11.27;;
16101;SDS011;56411;52.964;10.540;2023-11-21T09:35:51;17.47;;;9.50;;
16101;SDS011;56411;52.964;10.540;2023-11-21T09:38:19;17.03;;;9.37;;
16101;SDS011;56411;52.964;10.540;2023-11-21T09:40:46;17.40;;;9.53;;
16101;SDS011;56411;52.964;10.540;2023-11-21T09:43:15;18.57;;;9.37;;
16101;SDS011;56411;52.964;10.540;2023-11-21T09:45:45;16.87;;;9.70;;
16101;SDS011;56411;52.964;10.540;2023-11-21T09:48:15;20.10;;;9.20;;
16101;SDS011;56411;52.964;10.540;2023-11-21T09:50:44;17.33;;;9.23;;
16101;SDS011;56411;52.964;10.540;2023-11-21T09:53:16;17.87;;;9.30;;
16101;SDS011;56411;52.964;10.540;2023-11-21T09:55:47;18.07;;;9.73;;
16101;SDS011;56411;52.964;10.540;2023-11-21T09:58:16;19.87;;;10.40;;
16101;SDS011;56411;52.964;10.540;2023-11-21T10:00:44;15.87;;;9.17;;
16101;SDS011;56411;52.964;10.540;2023-11-21T10:03:12;17.50;;;9.53;;
16101;SDS011;56411;52.964;10.540;2023-11-21T10:05:43;16.60;;;9.07;;
16101;SDS011;56411;52.964;10.540;2023-11-21T10:08:12;17.60;;;9.33;;
16101;SDS011;56411;52.964;10.540;2023-11-21T10:10:42;14.53;;;8.27;;
16101;SDS011;56411;52.964;10.540;2023-11-21T10:13:11;19.27;;;8.50;;
16101;SDS011;56411;52.964;10.540;2023-11-21T10:15:42;15.47;;;8.73;;
16101;SDS011;56411;52.964;10.540;2023-11-21T10:18:13;16.17;;;8.80;;
16101;SDS011;56411;52.964;10.540;2023-11-21T10:20:42;16.23;;;7.60;;
16101;SDS011;56411;52.964;10.540;2023-11-21T10:23:11;15.77;;;7.93;;
16101;SDS011;56411;52.964;10.540;2023-11-21T10:25:39;16.10;;;8.40;;
16101;SDS011;56411;52.964;10.540;2023-11-21T10:28:09;16.57;;;8.13;;
16101;SDS011;56411;52.964;10.540;2023-11-21T10:30:36;14.37;;;8.00;;
16101;SDS011;56411;52.964;10.540;2023-11-21T10:33:05;14.23;;;7.17;;
16101;SDS011;56411;52.964;10.540;2023-11-21T10:35:42;15.93;;;8.60;;
16101;SDS011;56411;52.964;10.540;2023-11-21T10:38:12;15.23;;;7.63;;
16101;SDS011;56411;52.964;10.540;2023-11-21T10:40:39;13.63;;;7.37;;
16101;SDS011;56411;52.964;10.540;2023-11-21T10:43:09;13.00;;;7.10;;
16101;SDS011;56411;52.964;10.540;2023-11-21T10:45:38;14.77;;;6.43;;
16101;SDS011;56411;52.964;10.540;2023-11-21T10:48:06;12.03;;;6.10;;
16101;SDS011;56411;52.964;10.540;2023-11-21T10:50:34;12.63;;;6.50;;
16101;SDS011;56411;52.964;10.540;2023-11-21T10:53:02;11.70;;;5.93;;
16101;SDS011;56411;52.964;10.540;2023-11-21T10:55:30;12.13;;;6.40;;
16101;SDS011;56411;52.964;10.540;2023-11-21T10:57:59;13.60;;;5.93;;
16101;SDS011;56411;52.964;10.540;2023-11-21T11:00:29;12.00;;;6.30;;
16101;SDS011;56411;52.964;10.540;2023-11-21T11:02:57;12.30;;;5.87;;
16101;SDS011;56411;52.964;10.540;2023-11-21T11:05:26;12.67;;;5.60;;
16101;SDS011;56411;52.964;10.540;2023-11-21T11:07:56;11.63;;;5.33;;
16101;SDS011;56411;52.964;10.540;2023-11-21T11:10:28;11.87;;;5.43;;
16101;SDS011;56411;52.964;10.540;2023-11-21T11:12:56;11.33;;;5.73;;
16101;SDS011;56411;52.964;10.540;2023-11-21T11:15:26;10.60;;;5.30;;
16101;SDS011;56411;52.964;10.540;2023-11-21T11:17:54;13.00;;;6.23;;
16101;SDS011;56411;52.964;10.540;2023-11-21T11:20:23;11.17;;;5.97;;
16101;SDS011;56411;52.964;10.540;2023-11-21T11:22:59;13.37;;;7.10;;
16101;SDS011;56411;52.964;10.540;2023-11-21T11:25:46;15.27;;;7.03;;
16101;SDS011;56411;52.964;10.540;2023-11-21T11:28:27;14.83;;;7.53;;
16101;SDS011;56411;52.964;10.540;2023-11-21T11:31:04;13.13;;;6.80;;
16101;SDS011;56411;52.964;10.540;2023-11-21T11:33:39;11.53;;;5.97;;
16101;SDS011;56411;52.964;10.540;2023-11-21T11:36:11;11.80;;;6.40;;
16101;SDS011;56411;52.964;10.540;2023-11-21T11:38:45;13.43;;;6.57;;
16101;SDS011;56411;52.964;10.540;2023-11-21T11:41:19;13.97;;;7.03;;
16101;SDS011;56411;52.964;10.540;2023-11-21T11:43:54;12.57;;;6.20;;
16101;SDS011;56411;52.964;10.540;2023-11-21T11:46:22;13.80;;;6.23;;
16101;SDS011;56411;52.964;10.540;2023-11-21T11:49:07;11.93;;;6.37;;
16101;SDS011;56411;52.964;10.540;2023-11-21T11:51:35;11.80;;;5.63;;
16101;SDS011;56411;52.964;10.540;2023-11-21T11:54:02;10.47;;;5.30;;
16101;SDS011;56411;52.964;10.540;2023-11-21T11:56:32;13.30;;;5.50;;
16101;SDS011;56411;52.964;10.540;2023-11-21T11:59:04;12.20;;;6.20;;
16101;SDS011;56411;52.964;10.540;2023-11-21T12:01:32;11.63;;;5.93;;
16101;SDS011;56411;52.964;10.540;2023-11-21T12:07:00;12.20;;;5.97;;
16101;SDS011;56411;52.964;10.540;2023-11-21T12:09:29;16.50;;;6.63;;
16101;SDS011;56411;52.964;10.540;2023-11-21T12:11:57;14.00;;;7.03;;
16101;SDS011;56411;52.964;10.540;2023-11-21T12:14:26;12.47;;;6.40;;
16101;SDS011;56411;52.964;10.540;2023-11-21T12:16:54;13.53;;;6.93;;
16101;SDS011;56411;52.964;10.540;2023-11-21T12:19:21;11.83;;;6.30;;
16101;SDS011;56411;52.964;10.540;2023-11-21T12:21:49;12.97;;;6.70;;
16101;SDS011;56411;52.964;10.540;2023-11-21T12:24:17;13.70;;;6.57;;
16101;SDS011;56411;52.964;10.540;2023-11-21T12:26:44;11.67;;;6.20;;
16101;SDS011;56411;52.964;10.540;2023-11-21T12:29:11;13.77;;;6.60;;
16101;SDS011;56411;52.964;10.540;2023-11-21T12:31:40;13.80;;;6.60;;
16101;SDS011;56411;52.964;10.540;2023-11-21T12:34:07;12.70;;;6.10;;
16101;SDS011;56411;52.964;10.540;2023-11-21T12:36:37;13.03;;;6.13;;
16101;SDS011;56411;52.964;10.540;2023-11-21T12:39:04;12.17;;;5.20;;
16101;SDS011;56411;52.964;10.540;2023-11-21T12:41:34;11.17;;;5.47;;
16101;SDS011;56411;52.964;10.540;2023-11-21T12:44:01;11.03;;;5.20;;
16101;SDS011;56411;52.964;10.540;2023-11-21T12:46:28;11.03;;;5.30;;
16101;SDS011;56411;52.964;10.540;2023-11-21T12:48:59;10.80;;;5.37;;
16101;SDS011;56411;52.964;10.540;2023-11-21T12:51:26;14.57;;;6.10;;
16101;SDS011;56411;52.964;10.540;2023-11-21T12:53:54;14.10;;;6.23;;
16101;SDS011;56411;52.964;10.540;2023-11-21T12:56:23;11.30;;;5.30;;
16101;SDS011;56411;52.964;10.540;2023-11-21T12:58:53;10.27;;;5.17;;
16101;SDS011;56411;52.964;10.540;2023-11-21T13:01:24;10.27;;;5.27;;
16101;SDS011;56411;52.964;10.540;2023-11-21T13:03:55;10.23;;;5.20;;
16101;SDS011;56411;52.964;10.540;2023-11-21T13:06:26;10.47;;;5.80;;
16101;SDS011;56411;52.964;10.540;2023-11-21T13:08:58;10.40;;;5.13;;
16101;SDS011;56411;52.964;10.540;2023-11-21T13:11:25;11.43;;;5.27;;
16101;SDS011;56411;52.964;10.540;2023-11-21T13:13:57;12.20;;;5.27;;
16101;SDS011;56411;52.964;10.540;2023-11-21T13:16:25;13.53;;;6.10;;
16101;SDS011;56411;52.964;10.540;2023-11-21T13:18:52;11.07;;;5.27;;
16101;SDS011;56411;52.964;10.540;2023-11-21T13:21:19;13.40;;;5.50;;
16101;SDS011;56411;52.964;10.540;2023-11-21T13:23:48;12.53;;;5.60;;
16101;SDS011;56411;52.964;10.540;2023-11-21T13:26:18;12.07;;;5.10;;
16101;SDS011;56411;52.964;10.540;2023-11-21T13:28:45;9.93;;;4.83;;
16101;SDS011;56411;52.964;10.540;2023-11-21T13:31:13;11.27;;;5.17;;
16101;SDS011;56411;52.964;10.540;2023-11-21T13:33:51;10.87;;;5.70;;
16101;SDS011;56411;52.964;10.540;2023-11-21T13:36:21;11.33;;;5.37;;
16101;SDS011;56411;52.964;10.540;2023-11-21T13:38:50;13.13;;;5.60;;
16101;SDS011;56411;52.964;10.540;2023-11-21T13:41:19;12.27;;;5.30;;
16101;SDS011;56411;52.964;10.540;2023-11-21T13:43:53;11.27;;;5.63;;
16101;SDS011;56411;52.964;10.540;2023-11-21T13:46:28;13.63;;;5.83;;
16101;SDS011;56411;52.964;10.540;2023-11-21T13:49:00;15.37;;;6.17;;
16101;SDS011;56411;52.964;10.540;2023-11-21T13:51:27;13.57;;;6.03;;
16101;SDS011;56411;52.964;10.540;2023-11-21T13:54:06;14.70;;;6.13;;
16101;SDS011;56411;52.964;10.540;2023-11-21T13:56:35;12.87;;;5.97;;
16101;SDS011;56411;52.964;10.540;2023-11-21T13:59:02;11.73;;;5.77;;
16101;SDS011;56411;52.964;10.540;2023-11-21T14:01:38;12.03;;;6.13;;
16101;SDS011;56411;52.964;10.540;2023-11-21T14:04:19;11.90;;;5.13;;
16101;SDS011;56411;52.964;10.540;2023-11-21T14:07:00;12.40;;;5.70;;
16101;SDS011;56411;52.964;10.540;2023-11-21T14:09:45;11.83;;;5.47;;
16101;SDS011;56411;52.964;10.540;2023-11-21T14:12:14;13.27;;;5.63;;
16101;SDS011;56411;52.964;10.540;2023-11-21T14:14:42;13.60;;;5.83;;
16101;SDS011;56411;52.964;10.540;2023-11-21T14:17:10;10.90;;;5.40;;
16101;SDS011;56411;52.964;10.540;2023-11-21T14:19:37;10.47;;;5.23;;
16101;SDS011;56411;52.964;10.540;2023-11-21T14:22:08;10.67;;;4.97;;
16101;SDS011;56411;52.964;10.540;2023-11-21T14:24:36;12.53;;;5.53;;